Time;durP1;ratioP1;P1;durP2;ratioP2;P2;SDS_P1;SDS_P2;PMS_P1;PMS_P2;Temp;Humidity;BMP_temperature;BMP_pressure;BME280_temperature;BME280_humidity;BME280_pressure;Samples;Min_cycle;Max_cycle;Signal;HPM_P1;HPM_P2
2024/04/16 00:00:03;;;;;;;11.60;3.30;;;;;;;14.02;89.18;98321.60;79388;1301;3012931;-64
2024/04/16 00:02:40;;;;;;;8.80;3.10;;;;;;;14.38;87.85;98315.77;78307;1300;3052907;-64
2024/04/16 00:05:07;;;;;;;6.50;2.90;;;;;;;14.68;86.25;98315.25;79291;1301;3013641;-64
2024/04/16 00:07:33;;;;;;;11.60;3.90;;;;;;;14.65;85.83;98313.29;79515;1295;3013330;-64
2024/04/16 00:10:01;;;;;;;8.50;3.00;;;;;;;14.46;86.16;98311.73;78035;1295;3027633;-64
2024/04/16 00:12:28;;;;;;;9.60;3.60;;;;;;;14.22;87.33;98309.70;79623;1301;3013600;-66
2024/04/16 00:15:20;;;;;;;13.90;3.80;;;;;;;14.06;88.38;98304.52;77935;1302;3053628;-66
2024/04/16 00:17:47;;;;;;;14.40;4.00;;;;;;;13.97;88.71;98301.63;79304;1299;3015164;-65
2024/04/16 00:20:13;;;;;;;6.50;2.80;;;;;;;14.29;88.08;98298.17;79388;1295;3011642;-65
2024/04/16 00:22:42;;;;;;;9.50;3.20;;;;;;;14.60;86.09;98298.52;78089;1295;3055874;-65
2024/04/16 00:25:08;;;;;;;7.50;3.40;;;;;;;14.39;86.08;98298.28;79424;1297;3013019;-65
2024/04/16 00:27:35;;;;;;;6.90;3.30;;;;;;;14.15;86.77;98293.44;79496;1295;3013820;-66
2024/04/16 00:30:03;;;;;;;10.20;3.60;;;;;;;13.81;87.93;98286.71;78309;1301;3053311;-66
2024/04/16 00:32:30;;;;;;;8.50;3.80;;;;;;;13.47;89.29;98279.41;79320;1295;3013395;-68
2024/04/16 00:34:57;;;;;;;15.30;3.70;;;;;;;13.26;90.94;98279.95;79436;1295;3011924;-63
2024/04/16 00:37:25;;;;;;;8.30;3.60;;;;;;;13.10;91.98;98282.11;78142;1301;3056718;-65
2024/04/16 00:39:51;;;;;;;5.40;2.80;;;;;;;13.49;90.47;98279.98;79200;1296;3013202;-67
2024/04/16 00:42:18;;;;;;;13.40;3.40;;;;;;;13.66;89.14;98271.02;79488;1300;3013345;-68
2024/04/16 00:44:46;;;;;;;7.20;3.80;;;;;;;13.67;88.69;98269.91;78152;1300;3026085;-65
2024/04/16 00:47:12;;;;;;;11.70;4.20;;;;;;;13.43;89.63;98265.05;79374;1301;3019580;-64
2024/04/16 00:49:39;;;;;;;6.30;3.40;;;;;;;13.10;91.54;98264.50;79267;1296;3011673;-66
2024/04/16 00:52:07;;;;;;;10.80;4.00;;;;;;;12.91;93.06;98255.52;78001;1300;3026562;-67
2024/04/16 00:54:33;;;;;;;7.20;3.10;;;;;;;12.70;94.40;98255.62;79508;1295;3012949;-64
2024/04/16 00:57:00;;;;;;;10.30;3.70;;;;;;;13.02;93.77;98249.63;79734;1296;3011470;-65
2024/04/16 00:59:28;;;;;;;10.90;4.20;;;;;;;13.27;92.24;98245.19;78307;1298;3026477;-62
2024/04/16 01:01:55;;;;;;;11.10;3.90;;;;;;;13.24;91.44;98240.94;79357;1301;3013157;-67
2024/04/16 01:04:25;;;;;;;11.40;4.10;;;;;;;12.91;93.35;98241.44;79226;1301;3011688;-70
2024/04/16 01:06:52;;;;;;;14.50;5.10;;;;;;;12.60;95.03;98245.39;78061;1301;3056256;-67
2024/04/16 01:09:19;;;;;;;10.60;3.40;;;;;;;12.38;97.02;98239.05;79194;1295;3013067;-64
2024/04/16 01:11:46;;;;;;;11.10;3.30;;;;;;;12.69;96.57;98229.66;79461;1301;3011552;-66
2024/04/16 01:14:14;;;;;;;9.40;4.00;;;;;;;13.04;94.16;98227.45;78010;1301;3026567;-64
2024/04/16 01:16:41;;;;;;;7.00;3.30;;;;;;;12.81;94.80;98232.48;79310;1301;3013974;-66
2024/04/16 01:19:07;;;;;;;8.70;3.90;;;;;;;12.75;95.22;98237.73;79439;1296;3011932;-65
2024/04/16 01:21:35;;;;;;;10.50;4.30;;;;;;;12.59;96.36;98234.02;78282;1309;3056002;-64
2024/04/16 01:24:02;;;;;;;9.30;3.60;;;;;;;12.40;97.32;98243.23;79413;1296;3012815;-64
2024/04/16 01:26:29;;;;;;;10.70;3.40;;;;;;;12.69;96.99;98235.52;79355;1295;3011468;-65
2024/04/16 01:28:56;;;;;;;10.40;3.60;;;;;;;12.85;95.56;98239.69;78228;1300;3026649;-63
2024/04/16 01:31:23;;;;;;;13.50;4.20;;;;;;;12.62;96.00;98245.35;79444;1301;3011583;-64
2024/04/16 01:33:50;;;;;;;11.40;4.20;;;;;;;12.57;96.95;98250.53;79536;1297;3011592;-64
2024/04/16 01:36:18;;;;;;;8.20;4.30;;;;;;;12.38;97.55;98253.23;78143;1299;3027233;-64
2024/04/16 01:38:44;;;;;;;10.10;3.80;;;;;;;12.05;99.86;98250.28;79334;1301;3013617;-66
2024/04/16 01:41:11;;;;;;;8.50;3.70;;;;;;;12.46;99.04;98250.99;79443;1301;3012814;-68
2024/04/16 01:43:39;;;;;;;9.50;4.00;;;;;;;12.61;96.78;98254.42;78152;1300;3025516;-65
2024/04/16 01:46:07;;;;;;;10.70;4.00;;;;;;;12.58;97.00;98260.67;79381;1299;3013717;-65
2024/04/16 01:48:34;;;;;;;8.80;4.60;;;;;;;12.44;97.46;98268.27;79543;1300;3011719;-67
2024/04/16 01:51:02;;;;;;;11.10;4.50;;;;;;;12.31;98.01;98270.55;78224;1296;3055702;-66
2024/04/16 01:53:29;;;;;;;10.50;4.10;;;;;;;12.26;98.62;98276.11;79538;1299;3013573;-66
2024/04/16 01:55:59;;;;;;;7.40;3.20;;;;;;;12.75;97.40;98280.62;79258;1300;3011924;-65
2024/04/16 01:58:27;;;;;;;11.10;4.80;;;;;;;13.24;94.11;98282.03;78259;1299;3051576;-64
2024/04/16 02:01:00;;;;;;;11.70;4.50;;;;;;;13.16;93.36;98286.80;79201;1301;3013915;-65
2024/04/16 02:03:30;;;;;;;14.90;4.50;;;;;;;12.96;94.10;98288.62;78219;1301;3051040;-64
2024/04/16 02:05:57;;;;;;;15.50;6.10;;;;;;;12.72;94.62;98293.55;79655;1301;3014066;-64
2024/04/16 02:08:24;;;;;;;11.20;5.20;;;;;;;12.47;97.34;98297.45;79414;1295;3011655;-65
2024/04/16 02:10:57;;;;;;;17.60;7.00;;;;;;;12.88;96.37;98295.60;78273;1302;3050463;-64
2024/04/16 04:13:37;;;;;;;13.30;6.20;;;;;;;12.97;99.80;98227.17;80153;1301;3013068;-66
2024/04/16 04:16:04;;;;;;;15.90;6.90;;;;;;;13.21;98.16;98234.31;78937;1302;3013744;-67
2024/04/16 04:18:31;;;;;;;20.30;7.30;;;;;;;13.11;97.79;98229.95;79225;1301;3011868;-66
2024/04/16 04:20:58;;;;;;;16.00;6.90;;;;;;;12.98;98.20;98221.77;77965;1304;3026330;-67
2024/04/16 04:23:25;;;;;;;16.90;6.20;;;;;;;12.86;99.53;98218.85;79123;1304;3013468;-67
2024/04/16 04:25:52;;;;;;;20.60;7.40;;;;;;;13.11;99.23;98210.92;79176;1302;3011945;-67
2024/04/16 04:28:20;;;;;;;22.10;6.60;;;;;;;13.41;97.18;98203.15;78126;1303;3026743;-66
2024/04/16 04:30:49;;;;;;;15.40;6.60;;;;;;;13.47;96.55;98196.48;79445;1304;3013701;-68
2024/04/16 04:33:18;;;;;;;17.90;7.10;;;;;;;13.33;96.94;98192.44;79044;1298;3011525;-66
2024/04/16 04:35:45;;;;;;;17.50;7.10;;;;;;;13.19;98.15;98186.47;79435;1303;3013150;-66
2024/04/16 04:38:11;;;;;;;13.10;6.00;;;;;;;12.91;99.90;98191.67;79515;1299;3011299;-66
2024/04/16 04:40:39;;;;;;;13.00;6.10;;;;;;;13.29;98.78;98183.31;78614;1304;3026147;-67
2024/04/16 04:43:05;;;;;;;16.60;6.50;;;;;;;13.54;97.08;98177.02;79820;1299;3019608;-67
2024/04/16 04:45:32;;;;;;;19.90;7.20;;;;;;;13.58;96.40;98174.35;79468;1299;3011825;-68
2024/04/16 04:48:00;;;;;;;21.10;7.20;;;;;;;13.39;97.54;98168.00;78174;1301;3028301;-68
2024/04/16 04:50:27;;;;;;;14.80;7.00;;;;;;;13.32;98.26;98156.11;79272;1301;3012560;-66
2024/04/16 04:52:54;;;;;;;17.80;5.80;;;;;;;13.17;99.74;98156.61;79398;1299;3012995;-67
2024/04/16 04:55:21;;;;;;;16.00;6.00;;;;;;;13.50;99.54;98149.87;78111;1297;3053309;-68
2024/04/16 04:57:48;;;;;;;15.70;5.70;;;;;;;13.64;97.86;98145.60;79248;1299;3013941;-64
2024/04/16 05:00:15;;;;;;;16.50;6.80;;;;;;;13.71;97.69;98136.84;79483;1299;3013323;-66
2024/04/16 05:02:43;;;;;;;16.70;7.00;;;;;;;13.50;99.21;98128.83;78229;1301;3026245;-66
2024/04/16 05:05:09;;;;;;;19.20;5.90;;;;;;;13.39;100.00;98125.45;79751;1298;3013719;-65
2024/04/16 05:07:36;;;;;;;16.00;5.70;;;;;;;13.60;99.92;98133.20;79610;1299;3013560;-64
2024/04/16 05:10:04;;;;;;;16.00;6.30;;;;;;;13.77;99.39;98139.10;78405;1301;3026838;-66
2024/04/16 05:12:31;;;;;;;13.60;6.00;;;;;;;13.93;99.52;98129.66;79660;1298;3013327;-66
2024/04/16 05:14:59;;;;;;;14.80;6.50;;;;;;;13.93;99.54;98142.69;79694;1295;3011524;-67
2024/04/16 05:17:27;;;;;;;12.90;5.50;;;;;;;14.11;99.69;98164.91;78441;1301;3049454;-67
2024/04/16 05:19:53;;;;;;;23.10;8.20;;;;;;;14.56;96.95;98189.15;79398;1301;3018380;-65
2024/04/16 05:22:20;;;;;;;38.80;13.50;;;;;;;14.81;93.51;98184.29;79489;1300;3013127;-62
2024/04/16 05:24:48;;;;;;;39.50;14.20;;;;;;;14.61;93.81;98178.50;77994;1300;3026428;-65
2024/04/16 05:27:14;;;;;;;27.50;11.50;;;;;;;14.63;94.14;98170.13;79726;1298;3013239;-67
2024/04/16 05:29:41;;;;;;;19.40;8.50;;;;;;;14.60;94.45;98180.00;79497;1298;3011562;-66
2024/04/16 05:32:11;;;;;;;17.80;6.00;;;;;;;14.49;95.05;98168.19;78312;1299;3025982;-66
2024/04/16 05:34:37;;;;;;;18.60;7.60;;;;;;;14.99;93.92;98164.40;79244;1300;3012953;-64
2024/04/16 05:37:04;;;;;;;22.70;8.10;;;;;;;15.14;91.93;98160.55;79821;1300;3011958;-66
2024/04/16 05:39:32;;;;;;;21.50;7.60;;;;;;;14.87;92.61;98170.65;78404;1300;3051802;-66
2024/04/16 05:41:59;;;;;;;36.90;10.70;;;;;;;14.71;93.98;98160.58;79486;1295;3013583;-66
2024/04/16 05:44:25;;;;;;;28.40;9.30;;;;;;;14.52;94.63;98159.04;79783;1299;3012832;-66
2024/04/16 05:46:54;;;;;;;26.30;10.00;;;;;;;14.73;93.81;98157.92;78368;1300;3026916;-64
2024/04/16 05:49:21;;;;;;;17.00;7.90;;;;;;;15.08;92.43;98141.98;79872;1296;3013651;-67
2024/04/16 05:51:48;;;;;;;19.20;7.00;;;;;;;15.02;91.78;98145.48;80230;1296;3011597;-67
2024/04/16 05:54:15;;;;;;;14.80;7.50;;;;;;;14.92;92.33;98135.26;78917;1298;3050943;-66
2024/04/16 05:56:42;;;;;;;24.10;6.80;;;;;;;14.74;93.86;98131.79;79637;1298;3013002;-66
2024/04/16 05:59:09;;;;;;;22.90;9.10;;;;;;;15.15;92.85;98129.61;80513;1295;3011762;-66
2024/04/16 06:01:36;;;;;;;25.10;9.10;;;;;;;15.27;91.93;98130.52;78747;1301;3026119;-65
2024/04/16 06:04:03;;;;;;;18.00;7.80;;;;;;;15.26;91.19;98141.88;79945;1295;3018926;-64
2024/04/16 06:06:30;;;;;;;16.90;7.70;;;;;;;15.21;90.99;98137.63;79577;1296;3011560;-65
2024/04/16 06:08:58;;;;;;;23.60;10.20;;;;;;;15.05;91.63;98135.16;78241;1299;3026291;-66
2024/04/16 06:11:24;;;;;;;18.10;6.20;;;;;;;14.91;92.85;98142.00;79327;1298;3013069;-64
2024/04/16 06:13:51;;;;;;;15.30;6.60;;;;;;;15.31;91.31;98147.08;79411;1302;3011607;-65
2024/04/16 06:16:19;;;;;;;14.80;5.70;;;;;;;15.57;89.08;98163.25;78304;1298;3025037;-67
2024/04/16 06:18:45;;;;;;;20.70;7.00;;;;;;;15.51;88.93;98169.71;79575;1301;3013584;-67
2024/04/16 06:21:12;;;;;;;20.40;7.70;;;;;;;15.33;90.10;98187.11;79639;1299;3011574;-68
2024/04/16 06:23:40;;;;;;;19.30;7.00;;;;;;;15.31;90.51;98193.06;78298;1298;3026909;-66
2024/04/16 06:26:08;;;;;;;17.60;5.60;;;;;;;15.46;90.98;98187.83;79479;1296;3014038;-66
2024/04/16 06:28:35;;;;;;;18.30;6.00;;;;;;;15.90;89.20;98177.73;79424;1299;3011536;-65
2024/04/16 06:31:03;;;;;;;17.10;5.60;;;;;;;15.83;88.59;98161.55;78467;1301;3049550;-67
2024/04/16 06:33:31;;;;;;;14.90;6.10;;;;;;;15.80;88.82;98180.75;79696;1299;3013610;-67
2024/04/16 06:35:58;;;;;;;18.70;6.00;;;;;;;15.80;89.22;98182.38;79519;1301;3013438;-68
2024/04/16 06:38:26;;;;;;;17.80;6.60;;;;;;;15.80;89.20;98174.90;78494;1295;3050768;-68
2024/04/16 06:40:52;;;;;;;19.50;5.50;;;;;;;15.66;90.76;98164.55;79515;1296;3013635;-68
2024/04/16 06:43:19;;;;;;;16.50;5.60;;;;;;;16.15;89.39;98151.18;79453;1296;3011625;-65
2024/04/16 06:45:47;;;;;;;16.90;6.60;;;;;;;16.71;86.58;98144.27;78259;1302;3026551;-67
2024/04/16 06:48:13;;;;;;;17.70;7.10;;;;;;;16.79;85.67;98132.80;79562;1301;3013210;-72
2024/04/16 06:50:45;;;;;;;28.90;11.10;;;;;;;16.81;85.99;98125.00;79520;1296;3013604;-68
2024/04/16 06:53:13;;;;;;;28.70;10.40;;;;;;;16.43;87.40;98123.39;78019;1299;3051860;-67
2024/04/16 06:55:40;;;;;;;23.40;10.10;;;;;;;16.42;88.54;98119.23;79506;1300;3018420;-67
2024/04/16 06:58:07;;;;;;;18.00;7.00;;;;;;;16.37;88.62;98126.13;79585;1296;3011925;-63
2024/04/16 07:00:34;;;;;;;20.20;6.30;;;;;;;16.98;86.06;98130.00;78495;1301;3027190;-67
2024/04/16 07:03:01;;;;;;;23.00;6.70;;;;;;;17.32;83.24;98141.22;79561;1296;3013223;-67
2024/04/16 07:05:29;;;;;;;14.80;5.60;;;;;;;17.33;82.75;98130.69;79507;1300;3013528;-65
2024/04/16 07:07:57;;;;;;;20.00;6.10;;;;;;;17.01;83.33;98138.21;78246;1296;3051325;-69
2024/04/16 07:10:23;;;;;;;20.70;6.30;;;;;;;16.70;83.79;98125.80;79458;1295;3013398;-68
2024/04/16 07:12:50;;;;;;;20.90;5.90;;;;;;;16.55;84.43;98119.48;79217;1301;3011486;-66
2024/04/16 07:15:18;;;;;;;15.10;5.20;;;;;;;16.47;84.56;98128.92;78128;1301;3029753;-64
2024/04/16 07:17:44;;;;;;;16.60;5.70;;;;;;;16.84;82.85;98117.56;79423;1301;3021401;-66
2024/04/16 07:20:11;;;;;;;22.20;5.60;;;;;;;17.03;82.33;98116.80;79459;1296;3011938;-67
2024/04/16 07:22:39;;;;;;;20.80;7.20;;;;;;;17.01;82.61;98111.88;78269;1301;3025144;-69
2024/04/16 07:25:06;;;;;;;17.50;5.60;;;;;;;16.82;83.32;98114.08;79561;1298;3015301;-67
2024/04/16 07:27:33;;;;;;;16.50;5.20;;;;;;;16.87;82.91;98125.02;79476;1299;3013143;-66
2024/04/16 07:30:01;;;;;;;15.60;5.70;;;;;;;16.68;83.35;98116.62;78256;1301;3026881;-67
2024/04/16 07:32:27;;;;;;;13.80;4.80;;;;;;;16.62;83.67;98116.52;79438;1301;3019118;-66
2024/04/16 07:34:54;;;;;;;17.90;5.10;;;;;;;16.66;84.23;98096.66;79853;1301;3011885;-67
2024/04/16 07:37:22;;;;;;;17.30;6.40;;;;;;;17.16;82.46;98097.91;78452;1298;3026162;-68
2024/04/16 07:39:48;;;;;;;18.90;6.30;;;;;;;17.30;81.54;98090.55;79483;1298;3013213;-68
2024/04/16 07:42:15;;;;;;;22.50;6.50;;;;;;;17.37;81.00;98089.41;79698;1296;3013372;-69
2024/04/16 07:44:42;;;;;;;24.60;7.10;;;;;;;17.35;81.16;98090.14;78409;1295;3027000;-65
2024/04/16 07:47:09;;;;;;;20.80;7.20;;;;;;;17.43;80.65;98102.67;79691;1301;3019095;-65
2024/04/16 07:49:35;;;;;;;25.60;7.00;;;;;;;17.50;80.56;98119.41;79493;1301;3013231;-66
2024/04/16 07:52:05;;;;;;;18.30;5.40;;;;;;;17.67;78.96;98176.35;78224;1295;3026890;-68
2024/04/16 07:54:32;;;;;;;11.20;3.70;;;;;;;17.72;78.21;98190.89;79375;1299;3012736;-67
2024/04/16 07:56:59;;;;;;;13.40;4.30;;;;;;;18.14;76.89;98176.55;79575;1298;3012161;-67
2024/04/16 07:59:27;;;;;;;14.90;4.50;;;;;;;18.23;76.17;98148.66;78368;1301;3049590;-68
2024/04/16 08:01:53;;;;;;;17.10;5.10;;;;;;;18.07;76.49;98145.92;79538;1309;3012969;-70
2024/04/16 08:04:20;;;;;;;13.90;4.30;;;;;;;18.21;76.36;98165.55;79623;1298;3011705;-67
2024/04/16 08:06:49;;;;;;;14.20;4.80;;;;;;;18.56;75.51;98183.81;78335;1296;3026810;-68
2024/04/16 08:09:16;;;;;;;18.70;5.50;;;;;;;18.54;75.38;98190.60;79407;1299;3013279;-70
2024/04/16 08:11:44;;;;;;;14.40;5.10;;;;;;;18.40;75.56;98179.97;79959;1296;3011932;-72
2024/04/16 08:14:14;;;;;;;21.20;5.20;;;;;;;18.33;76.10;98173.13;78332;1300;3050277;-67
2024/04/16 08:16:40;;;;;;;22.90;5.00;;;;;;;18.17;75.80;98173.11;79507;1301;3011456;-66
2024/04/16 08:19:07;;;;;;;16.00;5.30;;;;;;;18.20;76.20;98167.98;80036;1301;3011987;-68
2024/04/16 08:21:35;;;;;;;20.60;5.20;;;;;;;18.23;76.32;98166.58;78253;1296;3052897;-68
2024/04/16 08:24:01;;;;;;;15.40;5.00;;;;;;;18.32;75.29;98182.81;79431;1301;3012924;-66
2024/04/16 08:26:28;;;;;;;18.70;4.90;;;;;;;18.29;75.41;98191.95;80032;1301;3011458;-68
2024/04/16 08:28:57;;;;;;;16.80;4.40;;;;;;;18.43;75.90;98185.30;78347;1301;3050101;-69
2024/04/16 08:31:25;;;;;;;15.70;4.40;;;;;;;19.04;73.78;98188.48;79475;1301;3012631;-70
2024/04/16 08:33:51;;;;;;;15.10;4.70;;;;;;;19.15;72.62;98185.06;79349;1301;3011846;-67
2024/04/16 08:36:19;;;;;;;15.10;5.60;;;;;;;19.20;72.53;98190.32;78218;1301;3052279;-70
2024/04/16 08:38:46;;;;;;;14.60;4.90;;;;;;;18.97;73.37;98183.80;79511;1299;3012965;-69
2024/04/16 08:41:13;;;;;;;21.00;4.60;;;;;;;19.32;72.85;98186.49;80306;1301;3012051;-68
2024/04/16 08:43:41;;;;;;;17.90;5.10;;;;;;;19.29;72.46;98192.34;78526;1296;3049462;-70
2024/04/16 08:46:08;;;;;;;21.00;5.70;;;;;;;19.18;72.90;98182.59;79541;1300;3012642;-69
2024/04/16 08:48:39;;;;;;;15.60;5.60;;;;;;;19.19;72.77;98189.60;79472;1302;3012092;-68
2024/04/16 08:51:08;;;;;;;12.20;5.20;;;;;;;19.23;73.05;98190.65;78186;1296;3052643;-68
2024/04/16 08:53:35;;;;;;;16.10;5.40;;;;;;;19.19;73.07;98185.63;79675;1299;3014553;-70
2024/04/16 08:56:03;;;;;;;16.60;6.00;;;;;;;19.13;73.84;98191.48;79459;1296;3013643;-67
2024/04/16 08:58:31;;;;;;;14.40;4.90;;;;;;;19.11;74.28;98184.94;78296;1301;3048538;-66
2024/04/16 09:00:57;;;;;;;16.30;5.70;;;;;;;19.35;73.86;98184.09;79574;1301;3012865;-67
2024/04/16 09:03:25;;;;;;;23.70;7.00;;;;;;;19.25;73.51;98189.70;79360;1301;3011398;-69
2024/04/16 09:05:52;;;;;;;13.60;5.20;;;;;;;19.39;73.97;98170.15;78200;1295;3025613;-69
2024/04/16 09:08:19;;;;;;;19.40;6.00;;;;;;;19.28;73.64;98176.40;79549;1296;3018947;-70
2024/04/16 09:10:46;;;;;;;15.00;5.70;;;;;;;19.31;73.46;98165.67;79626;1301;3011705;-71
2024/04/16 09:13:14;;;;;;;23.70;5.90;;;;;;;19.33;73.90;98170.38;78628;1300;3026745;-67
2024/04/16 09:15:41;;;;;;;15.30;6.40;;;;;;;19.22;73.42;98165.05;79975;1301;3018900;-70
2024/04/16 09:18:07;;;;;;;17.70;6.10;;;;;;;19.32;73.15;98168.21;79692;1298;3012448;-66
2024/04/16 09:20:35;;;;;;;19.90;5.70;;;;;;;19.40;72.80;98176.63;78396;1302;3028791;-71
2024/04/16 09:23:02;;;;;;;21.10;5.80;;;;;;;19.29;73.01;98173.48;79491;1296;3013143;-64
2024/04/16 09:25:29;;;;;;;26.80;6.00;;;;;;;19.37;73.08;98162.81;79401;1301;3011919;-68
2024/04/16 09:27:57;;;;;;;16.30;4.60;;;;;;;19.58;72.83;98159.06;78491;1301;3026413;-70
2024/04/16 09:30:23;;;;;;;26.20;6.50;;;;;;;19.64;72.36;98160.50;79677;1301;3018433;-71
2024/04/16 09:32:57;;;;;;;19.80;5.30;;;;;;;19.73;72.07;98161.91;79528;1300;3011182;-70
2024/04/16 09:35:26;;;;;;;18.90;5.40;;;;;;;19.96;71.39;98163.95;78518;1298;3052091;-71
2024/04/16 09:38:00;;;;;;;15.10;5.20;;;;;;;19.95;71.48;98162.34;79645;1301;3014722;-71
2024/04/16 09:40:31;;;;;;;17.70;5.40;;;;;;;20.14;70.43;98167.31;79859;1299;3053329;-73
2024/04/16 09:42:58;;;;;;;20.90;5.10;;;;;;;20.10;70.03;98159.59;80906;1298;3011258;-71
2024/04/16 09:45:28;;;;;;;14.90;4.80;;;;;;;20.27;70.34;98158.96;79236;1301;3013127;-66
2024/04/16 09:47:58;;;;;;;22.90;5.00;;;;;;;20.44;70.13;98153.24;79590;1301;3013387;-70
2024/04/16 09:50:26;;;;;;;16.10;4.80;;;;;;;20.60;69.43;98144.10;78318;1301;3053636;-74
2024/04/16 09:52:54;;;;;;;23.30;5.50;;;;;;;20.69;67.71;98151.95;79642;1301;3018492;-71
2024/04/16 09:55:24;;;;;;;18.90;5.90;;;;;;;20.77;67.43;98158.13;79556;1296;3011912;-71
2024/04/16 09:57:53;;;;;;;15.80;5.90;;;;;;;20.97;67.33;98158.14;78574;1302;3048743;-72
2024/04/16 10:00:19;;;;;;;16.90;6.30;;;;;;;21.05;66.64;98162.81;79974;1300;3012879;-72
2024/04/16 10:02:46;;;;;;;22.60;5.40;;;;;;;21.17;66.85;98160.65;79721;1298;3011692;-70
2024/04/16 10:05:15;;;;;;;20.70;5.80;;;;;;;21.46;65.89;98156.02;78575;1298;3051407;-70
2024/04/16 10:07:45;;;;;;;18.70;5.10;;;;;;;21.41;65.14;98156.35;79715;1301;3012780;-65
2024/04/16 18:12:24;;;;;;;16.80;3.60;;;;;;;19.60;59.35;98118.19;80645;1301;3012855;-67
2024/04/16 18:14:51;;;;;;;15.60;3.20;;;;;;;19.59;59.20;98116.66;79131;1305;3021001;-64
2024/04/16 18:17:18;;;;;;;17.00;3.60;;;;;;;19.57;59.38;98121.35;78986;1307;3012169;-67
2024/04/16 18:19:48;;;;;;;11.80;2.90;;;;;;;19.39;59.98;98122.73;77964;1305;3027092;-64
